createdAt,value
2023-03-30T00:01:44.103Z,6.50
2023-03-30T00:04:12.319Z,4.80
2023-03-30T00:06:42.901Z,8.20
2023-03-30T00:09:10.812Z,6.07
2023-03-30T00:11:38.571Z,7.90
2023-03-30T00:14:07.703Z,8.10
2023-03-30T00:16:35.537Z,7.18
2023-03-30T00:19:03.358Z,7.47
2023-03-30T00:21:31.164Z,7.37
2023-03-30T00:23:58.968Z,8.57
2023-03-30T00:26:27.014Z,5.88
2023-03-30T00:28:54.734Z,9.40
2023-03-30T00:31:23.950Z,5.65
2023-03-30T00:33:51.728Z,7.75
2023-03-30T00:36:19.544Z,6.68
2023-03-30T00:38:48.290Z,6.60
2023-03-30T00:41:16.839Z,6.95
2023-03-30T00:43:58.370Z,6.90
2023-03-30T00:46:27.549Z,7.50
2023-03-30T00:48:58.696Z,8.23
2023-03-30T00:51:28.438Z,7.70
2023-03-30T00:54:00.958Z,7.60
2023-03-30T00:56:31.171Z,7.50
2023-03-30T00:58:59.097Z,6.40
2023-03-30T01:01:29.026Z,5.88
2023-03-30T01:04:00.532Z,6.57
2023-03-30T01:06:29.966Z,9.10
2023-03-30T01:08:58.983Z,6.95
2023-03-30T01:11:27.665Z,6.93
2023-03-30T01:13:59.264Z,7.57
2023-03-30T01:16:33.755Z,6.32
2023-03-30T01:19:19.774Z,7.95
2023-03-30T01:22:25.688Z,8.25
2023-03-30T01:25:40.398Z,6.95
2023-03-30T01:28:31.921Z,9.55
2023-03-30T01:31:28.018Z,8.65
2023-03-30T01:34:23.603Z,8.25
2023-03-30T01:37:17.978Z,7.43
2023-03-30T01:39:57.815Z,8.40
2023-03-30T01:42:34.560Z,8.67
2023-03-30T01:45:11.569Z,5.70
2023-03-30T01:47:45.623Z,8.25
2023-03-30T01:50:17.999Z,7.07
2023-03-30T01:52:54.533Z,6.45
2023-03-30T01:55:27.706Z,8.43
2023-03-30T01:58:02.673Z,8.77
2023-03-30T02:00:31.566Z,7.43
2023-03-30T02:03:06.743Z,7.20
2023-03-30T02:05:35.656Z,10.40
2023-03-30T02:08:08.307Z,7.63
2023-03-30T02:10:38.699Z,7.90
2023-03-30T02:13:07.246Z,9.02
2023-03-30T02:15:39.730Z,9.23
2023-03-30T02:18:07.615Z,9.10
2023-03-30T02:20:36.495Z,10.82
2023-03-30T02:23:06.607Z,11.32
2023-03-30T02:25:36.416Z,8.65
2023-03-30T02:28:06.186Z,8.35
2023-03-30T02:30:35.161Z,9.00
2023-03-30T02:33:03.787Z,8.30
2023-03-30T02:35:45.634Z,7.53
2023-03-30T02:38:48.009Z,7.30
2023-03-30T02:41:29.879Z,10.65
2023-03-30T02:44:08.296Z,9.32
2023-03-30T02:46:59.526Z,11.50
2023-03-30T02:49:41.956Z,12.40
2023-03-30T02:52:23.498Z,10.57
2023-03-30T02:54:58.709Z,12.10
2023-03-30T02:57:35.980Z,12.35
2023-03-30T03:00:10.571Z,11.25
2023-03-30T03:02:43.030Z,9.90
2023-03-30T03:05:12.224Z,11.68
2023-03-30T03:07:40.674Z,11.57
2023-03-30T03:10:09.993Z,11.07
2023-03-30T03:12:37.831Z,12.60
2023-03-30T03:15:08.241Z,11.98
2023-03-30T03:17:36.104Z,8.65
2023-03-30T03:20:04.684Z,8.80
2023-03-30T03:22:32.913Z,11.45
2023-03-30T03:25:02.445Z,11.05
2023-03-30T03:27:30.220Z,13.75
2023-03-30T03:29:58.773Z,12.70
2023-03-30T03:32:27.904Z,11.90
2023-03-30T03:34:55.843Z,12.90
2023-03-30T03:37:23.597Z,13.68
2023-03-30T03:39:51.573Z,11.23
2023-03-30T03:42:19.354Z,13.88
2023-03-30T03:44:47.154Z,13.40
2023-03-30T03:47:16.794Z,17.17
2023-03-30T03:49:45.940Z,10.57
2023-03-30T03:52:13.704Z,15.93
2023-03-30T03:54:41.471Z,11.80
2023-03-30T03:57:09.278Z,10.52
2023-03-30T03:59:37.078Z,10.35
2023-03-30T04:02:05.501Z,14.50
2023-03-30T04:04:33.364Z,14.50
2023-03-30T04:07:02.518Z,14.27
2023-03-30T04:09:30.467Z,14.33
2023-03-30T04:11:58.425Z,10.25
2023-03-30T04:14:26.429Z,12.23
2023-03-30T04:16:58.133Z,11.85
2023-03-30T04:19:27.612Z,12.67
2023-03-30T04:21:55.520Z,12.82
2023-03-30T04:24:25.884Z,12.07
2023-03-30T04:26:53.700Z,14.60
2023-03-30T04:29:21.663Z,10.15
2023-03-30T04:31:50.807Z,13.07
2023-03-30T04:34:21.842Z,16.35
2023-03-30T04:36:49.676Z,14.25
2023-03-30T04:39:18.044Z,16.55
2023-03-30T04:41:47.173Z,13.35
2023-03-30T04:44:15.076Z,15.70
2023-03-30T04:46:42.998Z,15.07
2023-03-30T04:49:10.768Z,15.07
2023-03-30T04:51:39.533Z,15.13
2023-03-30T04:54:07.489Z,16.70
2023-03-30T04:56:35.397Z,14.98
2023-03-30T04:59:04.543Z,15.33
2023-03-30T05:01:32.631Z,13.88
2023-03-30T05:04:00.464Z,15.05
2023-03-30T05:06:29.526Z,12.33
2023-03-30T05:08:57.421Z,15.60
2023-03-30T05:11:26.074Z,16.92
2023-03-30T05:13:53.935Z,16.05
2023-03-30T05:16:23.630Z,14.57
2023-03-30T05:18:51.858Z,16.45
2023-03-30T05:21:19.775Z,15.80
2023-03-30T05:23:47.701Z,14.73
2023-03-30T05:26:15.659Z,13.05
2023-03-30T05:28:43.907Z,13.82
2023-03-30T05:31:11.802Z,15.35
2023-03-30T05:33:43.749Z,14.20
2023-03-30T05:36:12.312Z,16.30
2023-03-30T05:38:40.571Z,16.10
2023-03-30T05:41:08.936Z,17.25
2023-03-30T05:43:37.543Z,18.17
2023-03-30T05:46:05.958Z,16.35
2023-03-30T05:48:33.762Z,18.75
2023-03-30T05:51:03.099Z,12.93
2023-03-30T05:53:30.947Z,16.20
2023-03-30T05:55:58.701Z,17.50
2023-03-30T05:58:27.332Z,13.85
2023-03-30T06:00:58.913Z,14.23
2023-03-30T06:03:26.717Z,15.95
2023-03-30T06:05:54.975Z,18.65
2023-03-30T06:08:24.281Z,14.57
2023-03-30T06:10:56.025Z,17.48
2023-03-30T06:13:24.052Z,15.50
2023-03-30T06:15:52.054Z,24.20
2023-03-30T06:18:19.977Z,21.02
2023-03-30T06:20:48.672Z,18.40
2023-03-30T06:23:16.980Z,18.98
2023-03-30T06:25:52.598Z,16.13
2023-03-30T06:28:21.129Z,16.73
2023-03-30T06:30:49.608Z,26.05
2023-03-30T06:33:17.704Z,14.60
2023-03-30T06:35:47.232Z,14.40
2023-03-30T06:38:15.126Z,16.45
2023-03-30T06:40:43.245Z,12.38
2023-03-30T06:43:17.667Z,16.13
2023-03-30T06:45:51.035Z,14.98
2023-03-30T06:48:20.351Z,13.13
2023-03-30T06:50:48.700Z,16.90
2023-03-30T06:53:16.888Z,12.90
2023-03-30T06:55:46.429Z,13.02
2023-03-30T06:58:15.555Z,14.00
2023-03-30T07:00:43.405Z,14.48
2023-03-30T07:03:11.288Z,12.27
2023-03-30T07:05:39.276Z,15.10
2023-03-30T07:08:08.608Z,21.17
2023-03-30T07:10:36.421Z,12.98
2023-03-30T07:13:04.185Z,14.10
2023-03-30T07:15:33.334Z,13.63
2023-03-30T07:18:01.642Z,10.00
2023-03-30T07:20:29.534Z,12.95
2023-03-30T07:22:57.416Z,15.23
2023-03-30T07:25:25.306Z,12.27
2023-03-30T07:27:53.076Z,13.00
2023-03-30T07:30:22.847Z,13.30
2023-03-30T07:32:52.477Z,11.95
2023-03-30T07:35:20.319Z,15.80
2023-03-30T07:37:50.872Z,10.93
2023-03-30T07:40:19.285Z,11.53
2023-03-30T07:42:47.716Z,13.00
2023-03-30T07:45:16.760Z,11.30
2023-03-30T07:47:44.668Z,11.88
2023-03-30T07:50:13.959Z,10.65
2023-03-30T07:52:41.774Z,12.07
2023-03-30T07:55:10.942Z,13.27
2023-03-30T07:57:38.783Z,10.80
2023-03-30T08:00:10.284Z,13.45
2023-03-30T08:02:38.959Z,13.65
2023-03-30T08:05:07.435Z,13.77
2023-03-30T08:07:36.863Z,12.52
2023-03-30T08:10:05.246Z,13.32
2023-03-30T08:12:33.027Z,10.95
2023-03-30T08:15:01.126Z,14.23
2023-03-30T08:17:29.388Z,14.55
2023-03-30T08:19:57.295Z,12.07
2023-03-30T08:22:25.100Z,12.00
2023-03-30T08:24:54.988Z,13.57
2023-03-30T08:27:22.869Z,10.23
2023-03-30T08:29:50.667Z,12.93
2023-03-30T08:32:18.479Z,12.45
2023-03-30T08:34:46.246Z,12.38
2023-03-30T08:37:14.007Z,12.48
2023-03-30T08:39:42.396Z,14.07
2023-03-30T08:42:35.683Z,12.13
2023-03-30T08:45:05.291Z,12.45
2023-03-30T08:47:35.988Z,12.20
2023-03-30T08:50:09.532Z,11.90
2023-03-30T08:52:38.202Z,12.93
2023-03-30T08:55:06.813Z,13.07
2023-03-30T08:57:47.096Z,11.70
2023-03-30T09:00:27.415Z,14.73
2023-03-30T09:03:03.475Z,11.85
2023-03-30T09:05:34.956Z,10.88
2023-03-30T09:08:09.449Z,11.02
2023-03-30T09:10:42.689Z,11.45
2023-03-30T09:13:15.548Z,9.80
2023-03-30T09:15:50.864Z,11.77
2023-03-30T09:18:23.713Z,11.80
2023-03-30T09:20:55.371Z,13.55
2023-03-30T09:23:24.432Z,13.13
2023-03-30T09:26:01.583Z,10.65
2023-03-30T09:28:35.562Z,10.35
2023-03-30T09:31:08.585Z,10.88
2023-03-30T09:33:45.397Z,11.57
2023-03-30T09:36:16.541Z,14.38
2023-03-30T09:38:45.187Z,11.07
2023-03-30T09:41:29.893Z,7.95
2023-03-30T09:44:01.165Z,9.13
2023-03-30T09:46:29.073Z,9.02
2023-03-30T09:49:14.341Z,10.97
2023-03-30T09:51:56.111Z,8.02
2023-03-30T09:54:25.894Z,10.13
2023-03-30T09:56:56.899Z,9.50
2023-03-30T09:59:34.877Z,11.27
2023-03-30T10:02:19.584Z,11.88
2023-03-30T10:05:00.503Z,10.82
2023-03-30T10:07:31.616Z,10.48
2023-03-30T10:10:01.281Z,10.80
2023-03-30T10:12:30.843Z,11.85
2023-03-30T10:15:04.236Z,11.55
2023-03-30T10:17:32.859Z,13.18
2023-03-30T10:20:23.887Z,12.23
2023-03-30T10:22:53.960Z,12.65
2023-03-30T10:25:24.890Z,11.90
2023-03-30T10:27:55.730Z,13.75
2023-03-30T10:30:28.269Z,14.43
2023-03-30T10:32:59.255Z,14.23
2023-03-30T10:35:33.918Z,13.63
2023-03-30T10:38:02.853Z,10.45
2023-03-30T10:40:36.594Z,12.47
2023-03-30T10:43:07.552Z,13.77
2023-03-30T10:45:42.835Z,15.13
2023-03-30T10:48:30.887Z,13.23
2023-03-30T10:51:08.304Z,12.25
2023-03-30T10:53:48.615Z,11.30
2023-03-30T10:56:27.103Z,11.93
2023-03-30T10:59:06.015Z,11.73
2023-03-30T11:01:42.789Z,9.77
2023-03-30T11:04:23.606Z,10.45
2023-03-30T11:06:54.420Z,11.70
2023-03-30T11:09:28.319Z,13.48
2023-03-30T11:12:01.284Z,11.93
2023-03-30T11:14:38.003Z,14.75
2023-03-30T11:17:13.775Z,12.02
2023-03-30T11:19:48.353Z,13.30
2023-03-30T11:22:23.566Z,10.30
2023-03-30T11:24:55.114Z,10.50
2023-03-30T11:27:27.873Z,10.05
2023-03-30T11:30:04.105Z,10.95
2023-03-30T11:32:42.766Z,10.30
2023-03-30T11:35:17.102Z,8.38
2023-03-30T11:37:51.263Z,7.93
2023-03-30T11:40:22.769Z,9.67
2023-03-30T11:42:52.479Z,9.77
2023-03-30T11:45:36.087Z,7.57
2023-03-30T11:48:19.046Z,7.60
2023-03-30T11:51:01.433Z,9.65
2023-03-30T11:53:34.839Z,8.27
2023-03-30T11:56:09.357Z,6.63
2023-03-30T11:58:39.049Z,9.93
2023-03-30T12:01:29.298Z,8.07
2023-03-30T12:04:05.438Z,7.32
2023-03-30T12:06:34.698Z,7.27
2023-03-30T12:09:22.075Z,8.48
2023-03-30T12:11:53.603Z,6.18
2023-03-30T12:14:38.148Z,8.23
2023-03-30T12:17:15.954Z,7.57
2023-03-30T12:19:56.439Z,8.07
2023-03-30T12:22:31.184Z,8.25
2023-03-30T12:25:04.812Z,6.22
2023-03-30T12:27:38.677Z,8.63
2023-03-30T12:30:25.988Z,7.47
2023-03-30T12:33:04.513Z,7.03
2023-03-30T12:35:57.388Z,6.20
2023-03-30T12:38:27.732Z,6.57
2023-03-30T12:41:05.736Z,6.82
2023-03-30T12:43:42.755Z,6.82
2023-03-30T12:46:20.230Z,6.38
2023-03-30T12:48:58.551Z,7.28
2023-03-30T12:51:44.537Z,6.57
2023-03-30T12:54:30.347Z,7.70
2023-03-30T12:57:03.317Z,6.10
2023-03-30T12:59:49.115Z,6.60
2023-03-30T13:02:36.002Z,5.17
2023-03-30T13:05:05.108Z,5.45
2023-03-30T13:07:36.340Z,7.15
2023-03-30T13:10:26.372Z,5.63
2023-03-30T13:12:58.141Z,5.07
2023-03-30T13:15:36.261Z,4.65
2023-03-30T13:18:06.245Z,5.30
2023-03-30T13:20:36.534Z,4.53
2023-03-30T13:23:28.044Z,7.72
2023-03-30T13:26:05.878Z,4.68
2023-03-30T13:28:48.659Z,3.43
2023-03-30T13:31:34.697Z,5.35
2023-03-30T13:34:13.261Z,4.75
2023-03-30T13:36:47.093Z,3.65
2023-03-30T13:39:22.794Z,6.03
2023-03-30T13:41:58.432Z,3.80
2023-03-30T13:44:43.723Z,4.82
2023-03-30T13:47:28.940Z,3.75
2023-03-30T13:50:01.278Z,3.67
2023-03-30T13:52:33.206Z,4.50
2023-03-30T13:55:03.912Z,3.33
2023-03-30T13:57:36.197Z,3.40
2023-03-30T14:00:08.042Z,3.85
2023-03-30T14:02:41.000Z,5.95
2023-03-30T14:05:15.193Z,5.18
2023-03-30T14:07:46.721Z,3.95
2023-03-30T14:10:18.462Z,3.45
2023-03-30T14:12:48.758Z,4.45
2023-03-30T14:15:19.488Z,4.03
2023-03-30T14:17:50.648Z,5.18
2023-03-30T14:20:28.152Z,5.28
2023-03-30T14:22:58.431Z,5.88
2023-03-30T14:25:30.676Z,5.53
2023-03-30T14:28:02.798Z,6.22
2023-03-30T14:30:30.888Z,4.67
2023-03-30T14:33:09.277Z,6.63
2023-03-30T14:35:41.855Z,6.75
2023-03-30T14:38:19.276Z,8.03
2023-03-30T14:40:49.103Z,6.60
2023-03-30T14:43:20.504Z,8.13
2023-03-30T14:45:48.920Z,5.70
2023-03-30T14:48:23.713Z,7.00
2023-03-30T14:50:52.293Z,8.10
2023-03-30T14:53:24.732Z,7.93
2023-03-30T14:55:58.054Z,5.15
2023-03-30T14:58:27.576Z,7.15
2023-03-30T15:00:58.797Z,7.07
2023-03-30T15:03:34.027Z,7.30
2023-03-30T15:06:03.127Z,7.13
2023-03-30T15:08:33.551Z,6.47
2023-03-30T15:11:07.979Z,8.23
2023-03-30T15:13:39.058Z,7.43
2023-03-30T15:16:08.184Z,5.78
2023-03-30T15:18:37.918Z,7.57
2023-03-30T15:21:06.381Z,7.63
2023-03-30T15:23:37.157Z,8.27
2023-03-30T15:26:08.126Z,7.18
2023-03-30T15:28:43.396Z,7.55
2023-03-30T15:31:12.157Z,8.45
2023-03-30T15:33:43.932Z,6.25
2023-03-30T15:36:14.815Z,7.85
2023-03-30T15:38:49.197Z,6.38
2023-03-30T15:41:19.612Z,5.53
2023-03-30T15:43:56.564Z,6.00
2023-03-30T15:46:24.857Z,5.70
2023-03-30T15:48:54.318Z,6.93
2023-03-30T15:51:27.544Z,6.25
2023-03-30T15:53:59.599Z,5.95
2023-03-30T15:56:34.273Z,6.50
2023-03-30T15:59:02.531Z,6.63
2023-03-30T16:01:44.462Z,6.45
2023-03-30T16:04:15.758Z,7.22
2023-03-30T16:06:45.846Z,6.25
2023-03-30T16:09:14.692Z,4.53
2023-03-30T16:11:45.321Z,6.72
2023-03-30T16:14:15.285Z,7.20
2023-03-30T16:16:43.150Z,7.88
2023-03-30T16:19:12.266Z,7.20
2023-03-30T16:21:40.197Z,6.47
2023-03-30T16:24:08.547Z,6.22
2023-03-30T16:26:36.394Z,5.40
2023-03-30T16:29:05.665Z,6.03
2023-03-30T16:31:34.746Z,7.00
2023-03-30T16:34:02.555Z,5.97
2023-03-30T16:36:30.442Z,7.00
2023-03-30T16:38:58.190Z,5.47
2023-03-30T16:41:26.535Z,6.13
2023-03-30T16:43:54.409Z,5.63
2023-03-30T16:46:24.192Z,6.28
2023-03-30T16:48:52.004Z,6.88
2023-03-30T16:51:20.179Z,5.22
2023-03-30T16:53:48.031Z,5.55
2023-03-30T16:56:18.211Z,5.57
2023-03-30T16:58:46.698Z,5.65
2023-03-30T17:01:18.308Z,7.03
2023-03-30T17:03:47.986Z,7.82
2023-03-30T17:06:16.918Z,6.78
2023-03-30T17:08:45.264Z,5.75
2023-03-30T17:11:13.441Z,6.38
2023-03-30T17:13:42.151Z,5.85
2023-03-30T17:16:12.194Z,8.20
2023-03-30T17:18:40.077Z,7.30
2023-03-30T17:21:16.016Z,7.97
2023-03-30T17:23:44.731Z,7.85
2023-03-30T17:26:12.971Z,6.13
2023-03-30T17:28:41.273Z,7.53
2023-03-30T17:31:15.478Z,6.20
2023-03-30T17:33:43.312Z,7.53
2023-03-30T17:36:17.437Z,6.03
2023-03-30T17:38:45.260Z,5.90
2023-03-30T17:41:14.340Z,6.38
2023-03-30T17:43:43.349Z,6.28
2023-03-30T17:46:12.771Z,5.80
2023-03-30T17:48:40.911Z,7.55
2023-03-30T17:51:08.808Z,5.85
2023-03-30T17:53:38.031Z,8.15
2023-03-30T17:56:06.630Z,6.75
2023-03-30T17:58:36.317Z,7.15
2023-03-30T18:01:07.193Z,6.45
2023-03-30T18:03:38.486Z,7.40
2023-03-30T18:06:07.173Z,6.30
2023-03-30T18:08:35.873Z,6.18
2023-03-30T18:11:05.656Z,9.02
2023-03-30T18:13:33.563Z,6.65
2023-03-30T18:16:02.133Z,7.13
2023-03-30T18:18:32.308Z,6.18
2023-03-30T18:21:02.591Z,6.38
2023-03-30T18:23:31.514Z,7.47
2023-03-30T18:25:59.406Z,7.05
2023-03-30T18:28:30.647Z,8.25
2023-03-30T18:31:00.406Z,6.47
2023-03-30T18:33:28.316Z,5.40
2023-03-30T18:35:57.618Z,7.60
2023-03-30T18:38:25.864Z,5.93
2023-03-30T18:40:57.753Z,8.23
2023-03-30T18:43:26.959Z,6.25
2023-03-30T18:46:01.065Z,7.40
2023-03-30T18:48:30.037Z,8.63
2023-03-30T18:50:58.190Z,7.90
2023-03-30T18:53:27.564Z,7.57
2023-03-30T18:55:58.370Z,6.82
2023-03-30T18:58:27.953Z,6.30
2023-03-30T19:00:57.494Z,6.35
2023-03-30T19:03:27.285Z,7.45
2023-03-30T19:05:55.369Z,9.23
2023-03-30T19:08:24.953Z,5.20
2023-03-30T19:10:54.862Z,5.53
2023-03-30T19:13:23.526Z,4.55
2023-03-30T19:15:52.739Z,4.55
2023-03-30T19:18:22.506Z,5.63
2023-03-30T19:20:51.841Z,6.30
2023-03-30T19:23:21.522Z,5.87
2023-03-30T19:25:49.830Z,5.13
2023-03-30T19:28:18.341Z,6.38
2023-03-30T19:30:46.561Z,6.07
2023-03-30T19:33:17.002Z,6.43
2023-03-30T19:35:46.929Z,5.00
2023-03-30T19:38:14.874Z,6.05
2023-03-30T19:40:43.410Z,4.82
2023-03-30T19:43:11.699Z,5.95
2023-03-30T19:45:39.544Z,5.15
2023-03-30T19:48:07.430Z,6.72
2023-03-30T19:50:35.454Z,4.95
2023-03-30T19:53:04.835Z,5.47
2023-03-30T19:55:32.619Z,4.65
2023-03-30T19:58:00.418Z,5.10
2023-03-30T20:00:28.621Z,5.63
2023-03-30T20:02:56.905Z,4.68
2023-03-30T20:05:26.164Z,5.13
2023-03-30T20:07:54.057Z,4.10
2023-03-30T20:10:24.929Z,6.07
2023-03-30T20:12:53.540Z,5.65
2023-03-30T20:15:22.476Z,5.22
2023-03-30T20:17:56.170Z,6.85
2023-03-30T20:20:25.224Z,4.30
2023-03-30T20:22:56.089Z,4.80
2023-03-30T20:25:25.993Z,4.70
2023-03-30T20:27:54.044Z,7.47
2023-03-30T20:30:22.197Z,4.95
2023-03-30T20:33:04.330Z,4.85
2023-03-30T20:35:36.272Z,3.42
2023-03-30T20:38:04.569Z,4.30
2023-03-30T20:40:33.877Z,5.85
2023-03-30T20:43:03.020Z,4.78
2023-03-30T20:45:31.634Z,5.50
2023-03-30T20:48:05.793Z,4.85
2023-03-30T20:50:34.481Z,3.70
2023-03-30T20:53:02.542Z,3.97
2023-03-30T20:55:30.477Z,4.18
2023-03-30T20:57:59.625Z,5.88
2023-03-30T21:00:27.556Z,4.40
2023-03-30T21:02:55.456Z,4.20
2023-03-30T21:05:23.262Z,3.88
2023-03-30T21:07:53.956Z,4.28
2023-03-30T21:10:22.092Z,4.60
2023-03-30T21:12:49.880Z,5.70
2023-03-30T21:15:19.485Z,4.18
2023-03-30T21:17:47.321Z,4.60
2023-03-30T21:20:15.824Z,3.88
2023-03-30T21:22:43.643Z,4.43
2023-03-30T21:25:12.849Z,4.68
2023-03-30T21:27:40.820Z,2.92
2023-03-30T21:30:10.671Z,4.53
2023-03-30T21:32:39.835Z,3.65
2023-03-30T21:35:08.027Z,4.20
2023-03-30T21:37:35.878Z,4.63
2023-03-30T21:40:03.741Z,5.05
2023-03-30T21:42:34.809Z,4.07
2023-03-30T21:45:02.599Z,4.07
2023-03-30T21:47:30.535Z,3.92
2023-03-30T21:49:59.688Z,4.25
2023-03-30T21:52:28.760Z,4.93
2023-03-30T21:54:56.536Z,4.35
2023-03-30T21:57:24.376Z,4.45
2023-03-30T21:59:52.296Z,3.35
2023-03-30T22:02:20.148Z,4.18
2023-03-30T22:04:48.121Z,4.30
2023-03-30T22:07:17.260Z,3.78
2023-03-30T22:09:45.627Z,4.63
2023-03-30T22:12:13.429Z,4.60
2023-03-30T22:14:41.184Z,4.90
2023-03-30T22:17:11.227Z,5.40
2023-03-30T22:19:40.452Z,4.28
2023-03-30T22:22:08.216Z,4.60
2023-03-30T22:24:37.545Z,3.60
2023-03-30T22:27:05.414Z,4.97
2023-03-30T22:29:33.255Z,4.32
2023-03-30T22:32:01.346Z,3.33
2023-03-30T22:34:30.836Z,3.83
2023-03-30T22:36:58.782Z,4.97
2023-03-30T22:39:26.611Z,5.03
2023-03-30T22:41:55.888Z,4.80
2023-03-30T22:44:23.697Z,4.97
2023-03-30T22:46:51.476Z,3.83
2023-03-30T22:49:19.224Z,5.30
2023-03-30T22:51:52.038Z,4.88
2023-03-30T22:54:21.263Z,5.85
2023-03-30T22:56:49.610Z,4.80
2023-03-30T22:59:18.789Z,5.60
2023-03-30T23:01:46.597Z,7.90
2023-03-30T23:04:14.441Z,7.20
2023-03-30T23:06:42.241Z,8.73
2023-03-30T23:09:13.353Z,6.05
2023-03-30T23:11:45.590Z,6.53
2023-03-30T23:14:13.589Z,8.00
2023-03-30T23:16:42.744Z,8.23
2023-03-30T23:19:11.960Z,7.57
2023-03-30T23:21:40.984Z,8.13
2023-03-30T23:24:11.921Z,5.50
2023-03-30T23:26:39.874Z,6.28
2023-03-30T23:29:08.205Z,5.55
2023-03-30T23:31:36.218Z,5.97
2023-03-30T23:34:05.574Z,6.07
2023-03-30T23:36:33.457Z,6.83
2023-03-30T23:39:01.220Z,5.90
2023-03-30T23:41:29.070Z,6.47
2023-03-30T23:43:56.958Z,5.90
2023-03-30T23:46:25.362Z,5.97
2023-03-30T23:48:53.208Z,6.30
2023-03-30T23:51:22.339Z,5.93
2023-03-30T23:53:54.240Z,6.22
2023-03-30T23:56:27.666Z,6.28
2023-03-30T23:58:55.428Z,5.60
